sensor_id;sensor_type;location;lat;lon;timestamp;P1;durP1;ratioP1;P2;durP2;ratioP2
11054;SDS011;5580;50.106;8.702;2022-12-18T00:01:17;38.43;;;17.87;;
11054;SDS011;5580;50.106;8.702;2022-12-18T00:03:45;42.13;;;18.57;;
11054;SDS011;5580;50.106;8.702;2022-12-18T00:06:11;39.03;;;18.13;;
11054;SDS011;5580;50.106;8.702;2022-12-18T00:08:37;40.73;;;18.40;;
11054;SDS011;5580;50.106;8.702;2022-12-18T00:11:06;40.83;;;17.93;;
11054;SDS011;5580;50.106;8.702;2022-12-18T00:13:32;38.33;;;18.07;;
11054;SDS011;5580;50.106;8.702;2022-12-18T00:16:02;42.63;;;19.23;;
11054;SDS011;5580;50.106;8.702;2022-12-18T00:18:29;39.80;;;18.27;;
11054;SDS011;5580;50.106;8.702;2022-12-18T00:20:57;44.93;;;19.47;;
11054;SDS011;5580;50.106;8.702;2022-12-18T00:23:25;37.50;;;18.50;;
11054;SDS011;5580;50.106;8.702;2022-12-18T00:25:51;39.80;;;17.47;;
11054;SDS011;5580;50.106;8.702;2022-12-18T00:28:17;41.13;;;18.40;;
11054;SDS011;5580;50.106;8.702;2022-12-18T00:30:42;40.87;;;17.77;;
11054;SDS011;5580;50.106;8.702;2022-12-18T00:33:08;40.53;;;17.60;;
11054;SDS011;5580;50.106;8.702;2022-12-18T00:35:34;40.30;;;17.30;;
11054;SDS011;5580;50.106;8.702;2022-12-18T00:37:59;40.43;;;18.10;;
11054;SDS011;5580;50.106;8.702;2022-12-18T00:40:25;41.30;;;19.23;;
11054;SDS011;5580;50.106;8.702;2022-12-18T00:42:50;42.57;;;18.77;;
11054;SDS011;5580;50.106;8.702;2022-12-18T00:45:26;42.27;;;19.17;;
11054;SDS011;5580;50.106;8.702;2022-12-18T00:47:54;39.37;;;18.73;;
11054;SDS011;5580;50.106;8.702;2022-12-18T00:50:21;37.60;;;17.63;;
11054;SDS011;5580;50.106;8.702;2022-12-18T00:52:47;42.47;;;18.23;;
11054;SDS011;5580;50.106;8.702;2022-12-18T00:55:13;37.93;;;17.80;;
11054;SDS011;5580;50.106;8.702;2022-12-18T00:57:38;43.90;;;18.20;;
11054;SDS011;5580;50.106;8.702;2022-12-18T01:00:05;39.27;;;18.10;;
11054;SDS011;5580;50.106;8.702;2022-12-18T01:02:31;43.30;;;18.17;;
11054;SDS011;5580;50.106;8.702;2022-12-18T01:04:57;39.17;;;17.40;;
11054;SDS011;5580;50.106;8.702;2022-12-18T01:07:23;40.20;;;18.23;;
11054;SDS011;5580;50.106;8.702;2022-12-18T01:09:48;41.77;;;17.87;;
11054;SDS011;5580;50.106;8.702;2022-12-18T01:12:14;37.83;;;17.53;;
11054;SDS011;5580;50.106;8.702;2022-12-18T01:14:39;38.90;;;17.43;;
11054;SDS011;5580;50.106;8.702;2022-12-18T01:17:05;40.47;;;17.70;;
11054;SDS011;5580;50.106;8.702;2022-12-18T01:19:30;38.67;;;17.67;;
11054;SDS011;5580;50.106;8.702;2022-12-18T01:21:56;38.30;;;17.57;;
11054;SDS011;5580;50.106;8.702;2022-12-18T01:24:22;39.70;;;17.73;;
11054;SDS011;5580;50.106;8.702;2022-12-18T01:26:48;41.63;;;17.63;;
11054;SDS011;5580;50.106;8.702;2022-12-18T01:29:13;36.17;;;18.13;;
11054;SDS011;5580;50.106;8.702;2022-12-18T01:31:39;39.60;;;17.23;;
11054;SDS011;5580;50.106;8.702;2022-12-18T01:34:05;39.93;;;18.17;;
11054;SDS011;5580;50.106;8.702;2022-12-18T01:36:34;41.00;;;18.13;;
11054;SDS011;5580;50.106;8.702;2022-12-18T01:39:03;39.63;;;17.87;;
11054;SDS011;5580;50.106;8.702;2022-12-18T01:41:30;43.93;;;18.07;;
11054;SDS011;5580;50.106;8.702;2022-12-18T01:47:17;42.43;;;17.67;;
11054;SDS011;5580;50.106;8.702;2022-12-18T01:49:53;39.67;;;18.30;;
11054;SDS011;5580;50.106;8.702;2022-12-18T01:52:20;39.97;;;17.93;;
11054;SDS011;5580;50.106;8.702;2022-12-18T01:54:47;40.17;;;18.33;;
11054;SDS011;5580;50.106;8.702;2022-12-18T01:57:15;39.33;;;18.40;;
11054;SDS011;5580;50.106;8.702;2022-12-18T01:59:41;41.97;;;18.23;;
11054;SDS011;5580;50.106;8.702;2022-12-18T02:02:10;34.50;;;16.70;;
11054;SDS011;5580;50.106;8.702;2022-12-18T02:04:36;40.23;;;17.70;;
11054;SDS011;5580;50.106;8.702;2022-12-18T02:07:14;39.67;;;18.20;;
11054;SDS011;5580;50.106;8.702;2022-12-18T02:10:05;43.97;;;17.43;;
11054;SDS011;5580;50.106;8.702;2022-12-18T02:12:48;35.03;;;17.10;;
11054;SDS011;5580;50.106;8.702;2022-12-18T02:18:44;36.40;;;17.13;;
11054;SDS011;5580;50.106;8.702;2022-12-18T02:21:20;43.13;;;17.60;;
11054;SDS011;5580;50.106;8.702;2022-12-18T02:23:57;36.57;;;17.17;;
11054;SDS011;5580;50.106;8.702;2022-12-18T02:29:04;44.50;;;18.03;;
11054;SDS011;5580;50.106;8.702;2022-12-18T02:31:43;36.00;;;17.17;;
11054;SDS011;5580;50.106;8.702;2022-12-18T02:34:14;37.43;;;16.70;;
11054;SDS011;5580;50.106;8.702;2022-12-18T02:36:41;34.87;;;15.93;;
11054;SDS011;5580;50.106;8.702;2022-12-18T02:39:10;38.87;;;17.87;;
11054;SDS011;5580;50.106;8.702;2022-12-18T02:41:38;43.47;;;18.17;;
11054;SDS011;5580;50.106;8.702;2022-12-18T02:44:08;37.07;;;16.73;;
11054;SDS011;5580;50.106;8.702;2022-12-18T02:46:46;38.13;;;17.37;;
11054;SDS011;5580;50.106;8.702;2022-12-18T02:55:03;34.23;;;16.93;;
11054;SDS011;5580;50.106;8.702;2022-12-18T03:00:29;33.47;;;16.40;;
11054;SDS011;5580;50.106;8.702;2022-12-18T03:03:07;39.63;;;17.13;;
11054;SDS011;5580;50.106;8.702;2022-12-18T03:05:43;35.17;;;17.03;;
11054;SDS011;5580;50.106;8.702;2022-12-18T03:08:32;36.90;;;17.83;;
11054;SDS011;5580;50.106;8.702;2022-12-18T03:11:13;36.83;;;17.60;;
11054;SDS011;5580;50.106;8.702;2022-12-18T03:13:46;41.67;;;17.83;;
11054;SDS011;5580;50.106;8.702;2022-12-18T03:16:18;40.67;;;17.60;;
11054;SDS011;5580;50.106;8.702;2022-12-18T03:18:56;37.60;;;17.77;;
11054;SDS011;5580;50.106;8.702;2022-12-18T03:21:28;39.77;;;16.20;;
11054;SDS011;5580;50.106;8.702;2022-12-18T03:23:59;35.00;;;15.77;;
11054;SDS011;5580;50.106;8.702;2022-12-18T03:26:27;36.13;;;17.40;;
11054;SDS011;5580;50.106;8.702;2022-12-18T03:28:56;38.97;;;17.83;;
11054;SDS011;5580;50.106;8.702;2022-12-18T03:31:29;37.27;;;17.30;;
11054;SDS011;5580;50.106;8.702;2022-12-18T03:34:02;40.43;;;18.30;;
11054;SDS011;5580;50.106;8.702;2022-12-18T03:36:33;41.43;;;17.97;;
11054;SDS011;5580;50.106;8.702;2022-12-18T03:38:59;39.43;;;17.37;;
11054;SDS011;5580;50.106;8.702;2022-12-18T03:41:31;41.03;;;17.70;;
11054;SDS011;5580;50.106;8.702;2022-12-18T03:49:38;39.83;;;17.83;;
11054;SDS011;5580;50.106;8.702;2022-12-18T03:52:32;39.90;;;16.97;;
11054;SDS011;5580;50.106;8.702;2022-12-18T03:55:05;38.87;;;17.43;;
11054;SDS011;5580;50.106;8.702;2022-12-18T03:57:33;36.27;;;16.90;;
11054;SDS011;5580;50.106;8.702;2022-12-18T04:00:10;38.40;;;17.47;;
11054;SDS011;5580;50.106;8.702;2022-12-18T04:02:38;39.43;;;17.83;;
11054;SDS011;5580;50.106;8.702;2022-12-18T04:05:08;37.23;;;18.97;;
11054;SDS011;5580;50.106;8.702;2022-12-18T04:07:35;39.13;;;17.93;;
11054;SDS011;5580;50.106;8.702;2022-12-18T04:10:02;39.60;;;18.47;;
11054;SDS011;5580;50.106;8.702;2022-12-18T04:12:31;37.70;;;17.67;;
11054;SDS011;5580;50.106;8.702;2022-12-18T04:14:56;38.07;;;18.57;;
11054;SDS011;5580;50.106;8.702;2022-12-18T04:17:22;39.27;;;18.37;;
11054;SDS011;5580;50.106;8.702;2022-12-18T04:19:48;42.30;;;18.00;;
11054;SDS011;5580;50.106;8.702;2022-12-18T04:22:17;42.17;;;18.80;;
11054;SDS011;5580;50.106;8.702;2022-12-18T04:24:43;41.13;;;18.70;;
11054;SDS011;5580;50.106;8.702;2022-12-18T04:27:08;35.20;;;18.10;;
11054;SDS011;5580;50.106;8.702;2022-12-18T04:29:34;36.73;;;17.03;;
11054;SDS011;5580;50.106;8.702;2022-12-18T04:31:59;34.60;;;17.57;;
11054;SDS011;5580;50.106;8.702;2022-12-18T04:34:25;36.27;;;17.83;;
11054;SDS011;5580;50.106;8.702;2022-12-18T04:36:50;39.77;;;17.90;;
11054;SDS011;5580;50.106;8.702;2022-12-18T04:39:16;38.80;;;17.63;;
11054;SDS011;5580;50.106;8.702;2022-12-18T04:41:42;38.50;;;17.00;;
11054;SDS011;5580;50.106;8.702;2022-12-18T04:44:07;37.33;;;17.60;;
11054;SDS011;5580;50.106;8.702;2022-12-18T04:46:33;39.33;;;18.00;;
11054;SDS011;5580;50.106;8.702;2022-12-18T04:48:58;35.67;;;16.80;;
11054;SDS011;5580;50.106;8.702;2022-12-18T04:51:24;37.83;;;17.57;;
11054;SDS011;5580;50.106;8.702;2022-12-18T04:53:49;36.63;;;17.53;;
11054;SDS011;5580;50.106;8.702;2022-12-18T04:56:15;37.20;;;16.40;;
11054;SDS011;5580;50.106;8.702;2022-12-18T04:58:41;34.90;;;16.67;;
11054;SDS011;5580;50.106;8.702;2022-12-18T05:01:09;41.87;;;17.40;;
11054;SDS011;5580;50.106;8.702;2022-12-18T05:03:38;43.03;;;17.57;;
11054;SDS011;5580;50.106;8.702;2022-12-18T05:06:04;39.13;;;17.87;;
11054;SDS011;5580;50.106;8.702;2022-12-18T05:08:30;37.37;;;17.40;;
11054;SDS011;5580;50.106;8.702;2022-12-18T05:11:00;40.07;;;18.17;;
11054;SDS011;5580;50.106;8.702;2022-12-18T05:13:27;40.70;;;18.10;;
11054;SDS011;5580;50.106;8.702;2022-12-18T05:15:53;37.93;;;17.37;;
11054;SDS011;5580;50.106;8.702;2022-12-18T05:18:19;36.23;;;16.83;;
11054;SDS011;5580;50.106;8.702;2022-12-18T05:20:46;38.93;;;17.80;;
11054;SDS011;5580;50.106;8.702;2022-12-18T05:23:11;31.57;;;16.03;;
11054;SDS011;5580;50.106;8.702;2022-12-18T05:25:37;39.53;;;17.10;;
11054;SDS011;5580;50.106;8.702;2022-12-18T05:28:02;37.53;;;16.13;;
11054;SDS011;5580;50.106;8.702;2022-12-18T05:30:31;36.57;;;17.33;;
11054;SDS011;5580;50.106;8.702;2022-12-18T05:32:56;35.97;;;18.40;;
11054;SDS011;5580;50.106;8.702;2022-12-18T05:35:22;36.83;;;17.57;;
11054;SDS011;5580;50.106;8.702;2022-12-18T05:37:47;36.53;;;17.67;;
11054;SDS011;5580;50.106;8.702;2022-12-18T05:40:13;35.77;;;17.97;;
11054;SDS011;5580;50.106;8.702;2022-12-18T05:42:39;34.43;;;17.03;;
11054;SDS011;5580;50.106;8.702;2022-12-18T05:45:05;35.60;;;17.67;;
11054;SDS011;5580;50.106;8.702;2022-12-18T05:47:31;40.50;;;17.67;;
11054;SDS011;5580;50.106;8.702;2022-12-18T05:49:56;39.87;;;18.93;;
11054;SDS011;5580;50.106;8.702;2022-12-18T05:52:22;34.80;;;17.23;;
11054;SDS011;5580;50.106;8.702;2022-12-18T05:54:48;36.67;;;17.00;;
11054;SDS011;5580;50.106;8.702;2022-12-18T05:57:13;38.37;;;16.97;;
11054;SDS011;5580;50.106;8.702;2022-12-18T05:59:39;37.83;;;17.40;;
11054;SDS011;5580;50.106;8.702;2022-12-18T06:02:04;34.23;;;16.57;;
11054;SDS011;5580;50.106;8.702;2022-12-18T06:04:30;37.80;;;16.73;;
11054;SDS011;5580;50.106;8.702;2022-12-18T06:06:56;36.17;;;15.83;;
11054;SDS011;5580;50.106;8.702;2022-12-18T06:09:21;37.80;;;18.10;;
11054;SDS011;5580;50.106;8.702;2022-12-18T06:11:47;37.90;;;17.57;;
11054;SDS011;5580;50.106;8.702;2022-12-18T06:14:13;36.90;;;17.73;;
11054;SDS011;5580;50.106;8.702;2022-12-18T06:16:38;36.90;;;17.83;;
11054;SDS011;5580;50.106;8.702;2022-12-18T06:19:04;41.03;;;18.90;;
11054;SDS011;5580;50.106;8.702;2022-12-18T06:21:30;38.40;;;17.30;;
11054;SDS011;5580;50.106;8.702;2022-12-18T06:23:56;37.63;;;18.00;;
11054;SDS011;5580;50.106;8.702;2022-12-18T06:26:22;34.83;;;17.37;;
11054;SDS011;5580;50.106;8.702;2022-12-18T06:28:48;36.40;;;18.00;;
11054;SDS011;5580;50.106;8.702;2022-12-18T06:31:14;37.97;;;16.80;;
11054;SDS011;5580;50.106;8.702;2022-12-18T06:33:40;37.93;;;17.87;;
11054;SDS011;5580;50.106;8.702;2022-12-18T06:36:07;40.03;;;18.37;;
11054;SDS011;5580;50.106;8.702;2022-12-18T06:38:35;39.53;;;18.40;;
11054;SDS011;5580;50.106;8.702;2022-12-18T06:41:08;38.57;;;18.23;;
11054;SDS011;5580;50.106;8.702;2022-12-18T06:43:34;39.40;;;17.80;;
11054;SDS011;5580;50.106;8.702;2022-12-18T06:46:01;39.90;;;18.63;;
11054;SDS011;5580;50.106;8.702;2022-12-18T06:48:28;38.17;;;17.83;;
11054;SDS011;5580;50.106;8.702;2022-12-18T06:50:54;40.77;;;18.63;;
11054;SDS011;5580;50.106;8.702;2022-12-18T06:53:20;35.93;;;17.70;;
11054;SDS011;5580;50.106;8.702;2022-12-18T06:55:46;38.97;;;17.83;;
11054;SDS011;5580;50.106;8.702;2022-12-18T06:58:11;37.90;;;18.27;;
11054;SDS011;5580;50.106;8.702;2022-12-18T07:00:37;37.37;;;17.10;;
11054;SDS011;5580;50.106;8.702;2022-12-18T07:03:02;40.80;;;18.40;;
11054;SDS011;5580;50.106;8.702;2022-12-18T07:05:28;38.40;;;18.57;;
11054;SDS011;5580;50.106;8.702;2022-12-18T07:07:54;38.07;;;18.07;;
11054;SDS011;5580;50.106;8.702;2022-12-18T07:10:19;39.63;;;17.73;;
11054;SDS011;5580;50.106;8.702;2022-12-18T07:12:45;37.37;;;17.43;;
11054;SDS011;5580;50.106;8.702;2022-12-18T07:15:11;37.50;;;17.83;;
11054;SDS011;5580;50.106;8.702;2022-12-18T07:17:36;37.40;;;18.90;;
11054;SDS011;5580;50.106;8.702;2022-12-18T07:20:03;38.27;;;19.53;;
11054;SDS011;5580;50.106;8.702;2022-12-18T07:22:29;35.33;;;17.73;;
11054;SDS011;5580;50.106;8.702;2022-12-18T07:24:55;38.13;;;18.33;;
11054;SDS011;5580;50.106;8.702;2022-12-18T07:27:20;39.57;;;18.47;;
11054;SDS011;5580;50.106;8.702;2022-12-18T07:29:46;40.03;;;18.87;;
11054;SDS011;5580;50.106;8.702;2022-12-18T07:32:12;39.13;;;18.43;;
11054;SDS011;5580;50.106;8.702;2022-12-18T07:34:38;37.47;;;18.07;;
11054;SDS011;5580;50.106;8.702;2022-12-18T07:37:03;40.83;;;18.83;;
11054;SDS011;5580;50.106;8.702;2022-12-18T07:39:29;38.57;;;17.77;;
11054;SDS011;5580;50.106;8.702;2022-12-18T07:41:55;35.30;;;17.43;;
11054;SDS011;5580;50.106;8.702;2022-12-18T07:44:39;37.03;;;17.10;;
11054;SDS011;5580;50.106;8.702;2022-12-18T07:47:05;36.43;;;17.90;;
11054;SDS011;5580;50.106;8.702;2022-12-18T07:49:31;36.80;;;17.27;;
11054;SDS011;5580;50.106;8.702;2022-12-18T07:51:56;36.80;;;17.87;;
11054;SDS011;5580;50.106;8.702;2022-12-18T07:54:23;37.30;;;16.27;;
11054;SDS011;5580;50.106;8.702;2022-12-18T07:56:50;35.93;;;17.60;;
11054;SDS011;5580;50.106;8.702;2022-12-18T07:59:16;39.63;;;18.77;;
11054;SDS011;5580;50.106;8.702;2022-12-18T08:01:42;38.83;;;18.17;;
11054;SDS011;5580;50.106;8.702;2022-12-18T08:04:08;36.27;;;18.23;;
11054;SDS011;5580;50.106;8.702;2022-12-18T08:06:34;38.50;;;17.57;;
11054;SDS011;5580;50.106;8.702;2022-12-18T08:09:00;38.23;;;18.37;;
11054;SDS011;5580;50.106;8.702;2022-12-18T08:11:26;36.73;;;17.70;;
11054;SDS011;5580;50.106;8.702;2022-12-18T08:13:53;40.80;;;18.00;;
11054;SDS011;5580;50.106;8.702;2022-12-18T08:16:19;39.97;;;18.37;;
11054;SDS011;5580;50.106;8.702;2022-12-18T08:18:46;39.37;;;18.63;;
11054;SDS011;5580;50.106;8.702;2022-12-18T08:21:13;40.57;;;19.10;;
11054;SDS011;5580;50.106;8.702;2022-12-18T08:23:40;42.57;;;18.90;;
11054;SDS011;5580;50.106;8.702;2022-12-18T08:26:06;42.27;;;18.80;;
11054;SDS011;5580;50.106;8.702;2022-12-18T08:28:32;39.13;;;18.83;;
11054;SDS011;5580;50.106;8.702;2022-12-18T08:30:58;39.77;;;19.70;;
11054;SDS011;5580;50.106;8.702;2022-12-18T08:33:24;37.50;;;18.63;;
11054;SDS011;5580;50.106;8.702;2022-12-18T08:35:49;37.70;;;19.07;;
11054;SDS011;5580;50.106;8.702;2022-12-18T08:38:15;43.80;;;19.50;;
11054;SDS011;5580;50.106;8.702;2022-12-18T08:40:40;37.43;;;17.57;;
11054;SDS011;5580;50.106;8.702;2022-12-18T08:43:07;37.03;;;18.43;;
11054;SDS011;5580;50.106;8.702;2022-12-18T08:45:53;35.23;;;18.23;;
11054;SDS011;5580;50.106;8.702;2022-12-18T08:48:19;37.50;;;18.63;;
11054;SDS011;5580;50.106;8.702;2022-12-18T08:50:53;36.37;;;18.13;;
11054;SDS011;5580;50.106;8.702;2022-12-18T08:53:20;38.60;;;18.53;;
11054;SDS011;5580;50.106;8.702;2022-12-18T08:55:45;41.23;;;19.60;;
11054;SDS011;5580;50.106;8.702;2022-12-18T08:58:11;43.27;;;20.10;;
11054;SDS011;5580;50.106;8.702;2022-12-18T09:00:36;40.73;;;19.90;;
11054;SDS011;5580;50.106;8.702;2022-12-18T09:03:02;44.00;;;20.93;;
11054;SDS011;5580;50.106;8.702;2022-12-18T09:05:27;49.17;;;22.50;;
11054;SDS011;5580;50.106;8.702;2022-12-18T09:07:53;40.50;;;21.50;;
11054;SDS011;5580;50.106;8.702;2022-12-18T09:10:18;38.93;;;19.97;;
11054;SDS011;5580;50.106;8.702;2022-12-18T09:12:44;40.97;;;19.97;;
11054;SDS011;5580;50.106;8.702;2022-12-18T09:15:10;45.57;;;22.73;;
11054;SDS011;5580;50.106;8.702;2022-12-18T09:17:39;46.33;;;21.60;;
11054;SDS011;5580;50.106;8.702;2022-12-18T09:20:07;43.50;;;22.83;;
11054;SDS011;5580;50.106;8.702;2022-12-18T09:22:33;46.67;;;24.87;;
11054;SDS011;5580;50.106;8.702;2022-12-18T09:24:58;49.80;;;24.27;;
11054;SDS011;5580;50.106;8.702;2022-12-18T09:27:24;49.80;;;24.57;;
11054;SDS011;5580;50.106;8.702;2022-12-18T09:29:49;50.50;;;25.47;;
11054;SDS011;5580;50.106;8.702;2022-12-18T09:32:15;48.90;;;24.67;;
11054;SDS011;5580;50.106;8.702;2022-12-18T09:34:40;45.90;;;25.07;;
11054;SDS011;5580;50.106;8.702;2022-12-18T09:37:06;49.43;;;25.03;;
11054;SDS011;5580;50.106;8.702;2022-12-18T09:39:32;46.97;;;24.30;;
11054;SDS011;5580;50.106;8.702;2022-12-18T09:41:57;51.07;;;26.63;;
11054;SDS011;5580;50.106;8.702;2022-12-18T09:44:31;46.60;;;25.10;;
11054;SDS011;5580;50.106;8.702;2022-12-18T09:47:43;50.17;;;25.10;;
11054;SDS011;5580;50.106;8.702;2022-12-18T09:50:01;45.67;;;24.60;;
11054;SDS011;5580;50.106;8.702;2022-12-18T09:54:58;50.73;;;26.23;;
11054;SDS011;5580;50.106;8.702;2022-12-18T09:57:37;50.53;;;26.60;;
11054;SDS011;5580;50.106;8.702;2022-12-18T10:00:17;50.70;;;27.10;;
11054;SDS011;5580;50.106;8.702;2022-12-18T10:02:45;48.07;;;25.83;;
11054;SDS011;5580;50.106;8.702;2022-12-18T10:05:28;50.87;;;26.87;;
11054;SDS011;5580;50.106;8.702;2022-12-18T10:10:46;52.50;;;26.50;;
11054;SDS011;5580;50.106;8.702;2022-12-18T10:18:45;53.23;;;26.10;;
11054;SDS011;5580;50.106;8.702;2022-12-18T10:21:20;52.80;;;26.37;;
11054;SDS011;5580;50.106;8.702;2022-12-18T10:23:55;51.83;;;26.77;;
11054;SDS011;5580;50.106;8.702;2022-12-18T10:26:48;49.83;;;25.67;;
11054;SDS011;5580;50.106;8.702;2022-12-18T10:29:14;49.80;;;25.40;;
11054;SDS011;5580;50.106;8.702;2022-12-18T10:31:41;54.57;;;26.57;;
11054;SDS011;5580;50.106;8.702;2022-12-18T10:34:10;53.07;;;26.20;;
11054;SDS011;5580;50.106;8.702;2022-12-18T10:36:39;50.33;;;25.37;;
11054;SDS011;5580;50.106;8.702;2022-12-18T10:39:15;51.83;;;26.27;;
11054;SDS011;5580;50.106;8.702;2022-12-18T10:41:47;47.17;;;23.73;;
11054;SDS011;5580;50.106;8.702;2022-12-18T10:46:44;54.37;;;26.30;;
11054;SDS011;5580;50.106;8.702;2022-12-18T10:49:46;51.43;;;25.57;;
11054;SDS011;5580;50.106;8.702;2022-12-18T10:52:07;60.90;;;26.60;;
11054;SDS011;5580;50.106;8.702;2022-12-18T10:57:32;52.07;;;25.90;;
11054;SDS011;5580;50.106;8.702;2022-12-18T11:03:00;51.83;;;24.73;;
11054;SDS011;5580;50.106;8.702;2022-12-18T11:05:35;52.47;;;25.83;;
11054;SDS011;5580;50.106;8.702;2022-12-18T11:08:02;50.90;;;25.47;;
11054;SDS011;5580;50.106;8.702;2022-12-18T11:10:46;50.43;;;25.90;;
11054;SDS011;5580;50.106;8.702;2022-12-18T11:13:15;51.33;;;25.53;;
11054;SDS011;5580;50.106;8.702;2022-12-18T11:15:46;51.70;;;25.03;;
11054;SDS011;5580;50.106;8.702;2022-12-18T11:18:20;51.27;;;24.40;;
11054;SDS011;5580;50.106;8.702;2022-12-18T11:21:05;54.53;;;26.53;;
11054;SDS011;5580;50.106;8.702;2022-12-18T11:23:31;51.00;;;25.57;;
11054;SDS011;5580;50.106;8.702;2022-12-18T11:26:01;53.63;;;25.73;;
11054;SDS011;5580;50.106;8.702;2022-12-18T11:28:33;55.03;;;26.10;;
11054;SDS011;5580;50.106;8.702;2022-12-18T11:31:12;51.80;;;25.27;;
11054;SDS011;5580;50.106;8.702;2022-12-18T11:33:42;53.03;;;25.17;;
11054;SDS011;5580;50.106;8.702;2022-12-18T11:36:16;53.63;;;25.33;;
11054;SDS011;5580;50.106;8.702;2022-12-18T11:38:43;51.20;;;23.83;;
11054;SDS011;5580;50.106;8.702;2022-12-18T11:41:15;52.70;;;24.00;;
11054;SDS011;5580;50.106;8.702;2022-12-18T11:43:59;52.27;;;25.90;;
11054;SDS011;5580;50.106;8.702;2022-12-18T11:46:38;50.47;;;25.13;;
11054;SDS011;5580;50.106;8.702;2022-12-18T11:49:14;51.00;;;25.23;;
11054;SDS011;5580;50.106;8.702;2022-12-18T11:54:25;53.43;;;25.03;;
11054;SDS011;5580;50.106;8.702;2022-12-18T11:56:51;51.43;;;24.50;;
11054;SDS011;5580;50.106;8.702;2022-12-18T12:18:41;51.47;;;23.37;;
11054;SDS011;5580;50.106;8.702;2022-12-18T12:26:42;51.43;;;25.10;;
11054;SDS011;5580;50.106;8.702;2022-12-18T12:29:24;49.40;;;24.30;;
11054;SDS011;5580;50.106;8.702;2022-12-18T12:32:14;49.60;;;24.97;;
11054;SDS011;5580;50.106;8.702;2022-12-18T12:34:55;55.37;;;24.80;;
11054;SDS011;5580;50.106;8.702;2022-12-18T12:39:57;56.57;;;26.17;;
11054;SDS011;5580;50.106;8.702;2022-12-18T12:42:29;51.17;;;24.07;;
11054;SDS011;5580;50.106;8.702;2022-12-18T12:45:21;51.17;;;24.80;;
11054;SDS011;5580;50.106;8.702;2022-12-18T12:47:52;57.70;;;25.30;;
11054;SDS011;5580;50.106;8.702;2022-12-18T12:50:20;53.50;;;25.60;;
11054;SDS011;5580;50.106;8.702;2022-12-18T12:52:53;52.57;;;24.57;;
11054;SDS011;5580;50.106;8.702;2022-12-18T12:55:22;53.83;;;25.13;;
11054;SDS011;5580;50.106;8.702;2022-12-18T13:00:31;51.57;;;23.33;;
11054;SDS011;5580;50.106;8.702;2022-12-18T13:03:12;55.37;;;24.93;;
11054;SDS011;5580;50.106;8.702;2022-12-18T13:05:59;49.60;;;23.37;;
11054;SDS011;5580;50.106;8.702;2022-12-18T13:08:30;51.87;;;23.77;;
11054;SDS011;5580;50.106;8.702;2022-12-18T13:10:58;53.93;;;24.53;;
11054;SDS011;5580;50.106;8.702;2022-12-18T13:13:55;50.17;;;23.73;;
11054;SDS011;5580;50.106;8.702;2022-12-18T13:16:22;50.50;;;24.60;;
11054;SDS011;5580;50.106;8.702;2022-12-18T13:18:53;51.50;;;24.20;;
11054;SDS011;5580;50.106;8.702;2022-12-18T13:21:28;55.90;;;25.80;;
11054;SDS011;5580;50.106;8.702;2022-12-18T13:23:56;52.70;;;24.50;;
11054;SDS011;5580;50.106;8.702;2022-12-18T13:26:38;49.33;;;24.13;;
11054;SDS011;5580;50.106;8.702;2022-12-18T13:29:04;53.87;;;25.37;;
11054;SDS011;5580;50.106;8.702;2022-12-18T13:36:41;47.87;;;23.53;;
11054;SDS011;5580;50.106;8.702;2022-12-18T13:41:38;53.43;;;24.20;;
11054;SDS011;5580;50.106;8.702;2022-12-18T13:46:47;50.10;;;22.73;;
11054;SDS011;5580;50.106;8.702;2022-12-18T13:51:52;53.33;;;25.90;;
11054;SDS011;5580;50.106;8.702;2022-12-18T13:54:21;49.20;;;23.87;;
11054;SDS011;5580;50.106;8.702;2022-12-18T13:57:01;50.50;;;22.10;;
11054;SDS011;5580;50.106;8.702;2022-12-18T13:59:35;49.10;;;23.43;;
11054;SDS011;5580;50.106;8.702;2022-12-18T14:02:13;48.23;;;23.17;;
11054;SDS011;5580;50.106;8.702;2022-12-18T14:04:45;47.50;;;23.97;;
11054;SDS011;5580;50.106;8.702;2022-12-18T14:07:13;49.27;;;24.07;;
11054;SDS011;5580;50.106;8.702;2022-12-18T14:10:00;54.30;;;24.60;;
11054;SDS011;5580;50.106;8.702;2022-12-18T14:12:29;52.67;;;24.67;;
11054;SDS011;5580;50.106;8.702;2022-12-18T14:20:39;47.13;;;22.67;;
11054;SDS011;5580;50.106;8.702;2022-12-18T14:23:25;49.93;;;22.87;;
11054;SDS011;5580;50.106;8.702;2022-12-18T14:26:19;45.90;;;23.50;;
11054;SDS011;5580;50.106;8.702;2022-12-18T14:28:52;56.77;;;24.43;;
11054;SDS011;5580;50.106;8.702;2022-12-18T14:31:19;47.27;;;22.83;;
11054;SDS011;5580;50.106;8.702;2022-12-18T14:33:46;49.70;;;23.47;;
11054;SDS011;5580;50.106;8.702;2022-12-18T14:36:14;49.50;;;23.63;;
11054;SDS011;5580;50.106;8.702;2022-12-18T14:38:42;46.60;;;22.43;;
11054;SDS011;5580;50.106;8.702;2022-12-18T14:41:13;46.80;;;22.53;;
11054;SDS011;5580;50.106;8.702;2022-12-18T14:43:41;49.07;;;23.03;;
11054;SDS011;5580;50.106;8.702;2022-12-18T14:48:55;56.17;;;24.03;;
11054;SDS011;5580;50.106;8.702;2022-12-18T14:51:22;49.90;;;23.37;;
11054;SDS011;5580;50.106;8.702;2022-12-18T14:53:54;47.07;;;22.57;;
11054;SDS011;5580;50.106;8.702;2022-12-18T14:56:32;46.40;;;22.20;;
11054;SDS011;5580;50.106;8.702;2022-12-18T14:59:03;48.60;;;23.70;;
11054;SDS011;5580;50.106;8.702;2022-12-18T15:01:37;49.63;;;23.80;;
11054;SDS011;5580;50.106;8.702;2022-12-18T15:04:28;58.50;;;25.13;;
11054;SDS011;5580;50.106;8.702;2022-12-18T15:12:37;54.27;;;23.47;;
11054;SDS011;5580;50.106;8.702;2022-12-18T15:15:04;49.03;;;23.70;;
11054;SDS011;5580;50.106;8.702;2022-12-18T15:17:30;51.10;;;24.03;;
11054;SDS011;5580;50.106;8.702;2022-12-18T15:20:07;51.77;;;24.43;;
11054;SDS011;5580;50.106;8.702;2022-12-18T15:22:35;49.30;;;23.17;;
11054;SDS011;5580;50.106;8.702;2022-12-18T15:25:02;53.13;;;24.23;;
11054;SDS011;5580;50.106;8.702;2022-12-18T15:27:44;47.17;;;23.00;;
11054;SDS011;5580;50.106;8.702;2022-12-18T15:32:45;45.90;;;23.50;;
11054;SDS011;5580;50.106;8.702;2022-12-18T15:35:16;51.80;;;24.07;;
11054;SDS011;5580;50.106;8.702;2022-12-18T15:37:42;46.27;;;23.53;;
11054;SDS011;5580;50.106;8.702;2022-12-18T15:40:11;52.90;;;24.40;;
11054;SDS011;5580;50.106;8.702;2022-12-18T15:42:38;52.60;;;24.77;;
11054;SDS011;5580;50.106;8.702;2022-12-18T15:45:23;59.77;;;25.03;;
11054;SDS011;5580;50.106;8.702;2022-12-18T15:47:48;57.23;;;25.43;;
11054;SDS011;5580;50.106;8.702;2022-12-18T15:50:14;54.47;;;26.30;;
11054;SDS011;5580;50.106;8.702;2022-12-18T15:52:41;54.13;;;25.57;;
11054;SDS011;5580;50.106;8.702;2022-12-18T15:55:10;54.53;;;25.13;;
11054;SDS011;5580;50.106;8.702;2022-12-18T15:58:03;53.83;;;25.33;;
11054;SDS011;5580;50.106;8.702;2022-12-18T16:00:30;49.33;;;24.17;;
11054;SDS011;5580;50.106;8.702;2022-12-18T16:02:56;58.53;;;25.30;;
11054;SDS011;5580;50.106;8.702;2022-12-18T16:05:22;52.23;;;25.43;;
11054;SDS011;5580;50.106;8.702;2022-12-18T16:07:49;52.13;;;25.27;;
11054;SDS011;5580;50.106;8.702;2022-12-18T16:10:14;52.37;;;24.97;;
11054;SDS011;5580;50.106;8.702;2022-12-18T16:12:40;53.93;;;25.07;;
11054;SDS011;5580;50.106;8.702;2022-12-18T16:15:07;58.17;;;26.03;;
11054;SDS011;5580;50.106;8.702;2022-12-18T16:17:35;53.37;;;25.70;;
11054;SDS011;5580;50.106;8.702;2022-12-18T16:20:00;52.73;;;25.57;;
11054;SDS011;5580;50.106;8.702;2022-12-18T16:22:27;49.50;;;25.13;;
11054;SDS011;5580;50.106;8.702;2022-12-18T16:24:54;53.40;;;25.33;;
11054;SDS011;5580;50.106;8.702;2022-12-18T16:27:21;52.97;;;26.07;;
11054;SDS011;5580;50.106;8.702;2022-12-18T16:29:47;52.63;;;25.70;;
11054;SDS011;5580;50.106;8.702;2022-12-18T16:32:14;54.40;;;25.47;;